»·PEaware :: N261AB KBIL-KRKS

N261AB :: KBIL-KRKS

FLIGHT INFORMATION

Flight Status: Arrived
Operator: Privately registered:
United States
More flights under this callsign
Pilot: Brian K. (18535)
Aircraft: Diamond DA-62
(DA62)
More flights by this aircraft type
Origin: KBIL Billings Logan Intl
United States
Destination: KRKS Rock Springs-Sweetwater
United States
More flights between these airports :: More routes between these airports
Route: +BIL V187 OCS
File this flight plan on PilotEdge
Remarks:
Altitude:
(Current/Filed)
12,000ft
Speed:
(Current/Filed)
160kts
Departed: 13-Dec-19 05:22 PM
Arrived: 13-Dec-19 07:12 PM
Distance/Time
Traveled:
254nm/1:50
Distance/Time
To Go:
Arrived

Flight Plot

Page will automatically refresh every two minutes.

Flight plan parsing failed; only flown route is shown


Map Options




Map Legend


Flown Route
Filed Route
Departure Airport
Arrival Airport
Navaid (VOR, NDB)
Fix

Horizontal Profiles

Position Reports

Time Latitude Longitude Heading Altitude Ground
Speed
13-Dec-19 16:59 45.802003 -108.528024 90 3655ft 0kts
13-Dec-19 17:00 45.802003 -108.528024 90 3655ft 0kts
13-Dec-19 17:01 45.802003 -108.528024 90 3655ft 0kts
13-Dec-19 17:02 45.802003 -108.528024 90 3655ft 0kts
13-Dec-19 17:03 45.802003 -108.528024 90 3655ft 0kts
13-Dec-19 17:04 45.802003 -108.528024 90 3655ft 0kts
13-Dec-19 17:05 45.802003 -108.528024 90 3655ft 0kts
13-Dec-19 17:06 45.802003 -108.528024 90 3655ft 0kts
13-Dec-19 17:07 45.802003 -108.528024 90 3655ft 0kts
13-Dec-19 17:08 45.802003 -108.528024 90 3655ft 0kts
13-Dec-19 17:09 45.802003 -108.528024 90 3655ft 0kts
13-Dec-19 17:10 45.802003 -108.528024 90 3655ft 0kts
13-Dec-19 17:11 45.802003 -108.528024 90 3655ft 0kts
13-Dec-19 17:12 45.802003 -108.528024 90 3655ft 0kts
13-Dec-19 17:13 45.802025 -108.527925 59 3655ft 2kts
13-Dec-19 17:14 45.802898 -108.527618 5 3655ft 0kts
13-Dec-19 17:15 45.802898 -108.527618 5 3655ft 0kts
13-Dec-19 17:16 45.803723 -108.526769 107 3655ft 10kts
13-Dec-19 17:17 45.801998 -108.520741 115 3655ft 19kts
13-Dec-19 17:18 45.801229 -108.517326 53 3655ft 0kts
13-Dec-19 17:19 45.801229 -108.517326 53 3655ft 0kts
13-Dec-19 17:20 45.802029 -108.516748 350 3655ft 8kts
13-Dec-19 17:21 45.807496 -108.542427 289 4224ft 98kts
13-Dec-19 17:22 45.816797 -108.582435 291 5346ft 109kts
13-Dec-19 17:23 45.826130 -108.625089 291 6463ft 112kts
13-Dec-19 17:24 45.835007 -108.668264 291 7566ft 112kts
13-Dec-19 17:25 45.844003 -108.713002 291 8450ft 125kts
13-Dec-19 17:26 45.847997 -108.763214 233 9159ft 148kts
13-Dec-19 17:27 45.807689 -108.749872 149 9884ft 164kts
13-Dec-19 17:28 45.767851 -108.716324 149 10583ft 167kts
13-Dec-19 17:29 45.727542 -108.680935 149 11212ft 174kts
13-Dec-19 17:30 45.685915 -108.643171 149 11721ft 179kts
13-Dec-19 17:31 45.643033 -108.603231 149 11977ft 188kts
13-Dec-19 17:32 45.593482 -108.593446 180 11977ft 183kts
13-Dec-19 17:33 45.542329 -108.586270 180 11976ft 184kts
13-Dec-19 17:34 45.491139 -108.578978 180 11976ft 184kts
13-Dec-19 17:35 45.439902 -108.571695 180 11977ft 184kts
13-Dec-19 17:36 45.389222 -108.564502 180 11977ft 184kts
13-Dec-19 17:37 45.337758 -108.557188 180 11977ft 184kts
13-Dec-19 17:38 45.286463 -108.549811 180 11977ft 185kts
13-Dec-19 17:39 45.235248 -108.542527 180 11977ft 185kts
13-Dec-19 17:40 45.183677 -108.535236 180 11978ft 185kts
13-Dec-19 17:41 45.132203 -108.527974 180 11978ft 185kts
13-Dec-19 17:42 45.080537 -108.520692 180 11978ft 185kts
13-Dec-19 17:43 45.029611 -108.513528 180 11978ft 182kts
13-Dec-19 17:44 44.979254 -108.506460 180 11977ft 180kts
13-Dec-19 17:45 44.929422 -108.499476 180 11968ft 178kts
13-Dec-19 17:46 44.879988 -108.492566 180 11967ft 178kts
13-Dec-19 17:47 44.830674 -108.485686 180 11967ft 177kts
13-Dec-19 17:48 44.781201 -108.478793 180 11967ft 177kts
13-Dec-19 17:49 44.731804 -108.471921 180 11967ft 177kts
13-Dec-19 17:50 44.682271 -108.465042 180 11967ft 177kts
13-Dec-19 17:51 44.632920 -108.458200 180 11967ft 177kts
13-Dec-19 17:52 44.583259 -108.451326 180 11967ft 177kts
13-Dec-19 17:53 44.533832 -108.444496 180 11968ft 177kts
13-Dec-19 17:54 44.484557 -108.437705 180 11968ft 177kts
13-Dec-19 17:55 44.434922 -108.430894 180 11968ft 177kts
13-Dec-19 17:56 44.385625 -108.424143 180 11968ft 177kts
13-Dec-19 17:57 44.336276 -108.417395 180 11968ft 177kts
13-Dec-19 17:58 44.286732 -108.410632 180 11968ft 178kts
13-Dec-19 17:59 44.237117 -108.403856 180 11968ft 178kts
13-Dec-19 18:01 44.187852 -108.397127 180 11968ft 178kts
13-Dec-19 18:02 44.138125 -108.390346 180 11970ft 177kts
13-Dec-19 18:03 44.088745 -108.383623 180 11975ft 177kts
13-Dec-19 18:04 44.039468 -108.376926 180 11980ft 177kts
13-Dec-19 18:05 43.990065 -108.370223 180 11984ft 177kts
13-Dec-19 18:06 43.940975 -108.363575 180 11987ft 177kts
13-Dec-19 18:07 43.891921 -108.356942 180 11990ft 177kts
13-Dec-19 18:08 43.842679 -108.350299 180 11994ft 176kts
13-Dec-19 18:09 43.794053 -108.343742 180 11991ft 175kts
13-Dec-19 18:10 43.745351 -108.337191 180 11991ft 175kts
13-Dec-19 18:11 43.696839 -108.330676 180 11991ft 175kts
13-Dec-19 18:12 43.648037 -108.324132 180 11991ft 175kts
13-Dec-19 18:13 43.599317 -108.317611 180 11991ft 176kts
13-Dec-19 18:14 43.550517 -108.311089 180 11991ft 176kts
13-Dec-19 18:15 43.501473 -108.304545 180 11991ft 176kts
13-Dec-19 18:16 43.453252 -108.304296 200 11992ft 169kts
13-Dec-19 18:17 43.407800 -108.321354 202 11991ft 169kts
13-Dec-19 18:18 43.362383 -108.339126 202 11991ft 169kts
13-Dec-19 18:19 43.317093 -108.356910 202 11985ft 169kts
13-Dec-19 18:19 43.279396 -108.371702 202 11979ft 169kts
13-Dec-19 18:21 43.226467 -108.392450 202 11970ft 169kts
13-Dec-19 18:22 43.181285 -108.410133 202 11964ft 168kts
13-Dec-19 18:22 43.143574 -108.424872 202 11964ft 168kts
13-Dec-19 18:23 43.098349 -108.442523 202 11964ft 168kts
13-Dec-19 18:25 43.043991 -108.454795 187 11965ft 174kts
13-Dec-19 18:25 43.003464 -108.454915 187 11964ft 174kts
13-Dec-19 18:26 42.954597 -108.454757 187 11965ft 175kts
13-Dec-19 18:27 42.905606 -108.454556 188 11965ft 176kts
13-Dec-19 18:28 42.856474 -108.454349 188 11987ft 175kts
13-Dec-19 18:29 42.807320 -108.454148 188 12062ft 174kts
13-Dec-19 18:30 42.758723 -108.453945 188 12136ft 174kts
13-Dec-19 18:31 42.709948 -108.453740 188 12204ft 175kts
13-Dec-19 18:32 42.660667 -108.453537 188 12206ft 177kts
13-Dec-19 18:33 42.611136 -108.453319 188 12206ft 178kts
13-Dec-19 18:34 42.561407 -108.453103 188 12206ft 178kts
13-Dec-19 18:35 42.511585 -108.452890 188 12206ft 178kts
13-Dec-19 18:36 42.461883 -108.452678 188 12206ft 178kts
13-Dec-19 18:37 42.417024 -108.470540 214 12206ft 165kts
13-Dec-19 18:38 42.374856 -108.498228 215 12206ft 165kts
13-Dec-19 18:39 42.333546 -108.525734 215 12206ft 165kts
13-Dec-19 18:40 42.292161 -108.553302 215 12215ft 165kts
13-Dec-19 18:41 42.250804 -108.580827 215 12216ft 165kts
13-Dec-19 18:42 42.209274 -108.608426 215 12200ft 166kts
13-Dec-19 18:43 42.167551 -108.636105 215 12183ft 166kts
13-Dec-19 18:44 42.125588 -108.663904 214 12184ft 166kts
13-Dec-19 18:45 42.083747 -108.691581 214 12193ft 167kts
13-Dec-19 18:46 42.041801 -108.719294 214 12174ft 168kts
13-Dec-19 18:47 41.999584 -108.747227 214 12120ft 169kts
13-Dec-19 18:48 41.957368 -108.775093 214 12063ft 169kts
13-Dec-19 18:49 41.914883 -108.803029 214 12007ft 168kts
13-Dec-19 18:50 41.873328 -108.830311 214 12001ft 166kts
13-Dec-19 18:51 41.831672 -108.857628 214 12002ft 166kts
13-Dec-19 18:52 41.790114 -108.884838 214 12002ft 165kts
13-Dec-19 18:53 41.748348 -108.912040 214 11756ft 169kts
13-Dec-19 18:54 41.706178 -108.939577 213 11157ft 168kts
13-Dec-19 18:55 41.664143 -108.967011 212 10547ft 164kts
13-Dec-19 18:56 41.623213 -108.993681 211 10011ft 156kts
13-Dec-19 18:57 41.585753 -108.989673 114 10010ft 176kts
13-Dec-19 18:58 41.572615 -108.925267 106 10002ft 177kts
13-Dec-19 18:59 41.560032 -108.861410 106 10002ft 178kts
13-Dec-19 19:00 41.547310 -108.797330 113 9997ft 177kts
13-Dec-19 19:01 41.538325 -108.731799 90 9746ft 181kts
13-Dec-19 19:02 41.567164 -108.725275 270 9312ft 131kts
13-Dec-19 19:03 41.554122 -108.766678 236 9303ft 120kts
13-Dec-19 19:04 41.549271 -108.810703 279 9305ft 132kts
13-Dec-19 19:05 41.558246 -108.860892 279 8877ft 134kts
13-Dec-19 19:06 41.566202 -108.904984 278 8792ft 99kts
13-Dec-19 19:07 41.572722 -108.941730 278 8362ft 103kts
13-Dec-19 19:08 41.579509 -108.979788 278 7804ft 104kts
13-Dec-19 19:09 41.586151 -109.017189 278 7251ft 103kts
13-Dec-19 19:10 41.592300 -109.051302 280 6776ft 74kts
13-Dec-19 19:11 41.594506 -109.064583 282 6763ft 9kts
13-Dec-19 19:12 41.595999 -109.067764 9 6763ft 0kts
13-Dec-19 19:13 41.596057 -109.066655 103 6763ft 10kts
13-Dec-19 19:14 41.596130 -109.065340 58 6763ft 0kts

Navigation Log

Ident Type
Flight plan parsing failed, navigation log unavailable